createdAt,value
2022-12-16T00:01:15.558Z,82.51
2022-12-16T00:03:52.197Z,82.83
2022-12-16T00:06:24.801Z,83.11
2022-12-16T00:08:53.556Z,82.72
2022-12-16T00:11:21.556Z,82.64
2022-12-16T00:13:49.642Z,83.07
2022-12-16T00:16:20.424Z,83.25
2022-12-16T00:18:48.949Z,83.59
2022-12-16T00:21:18.649Z,83.44
2022-12-16T00:23:47.138Z,83.34
2022-12-16T00:26:15.255Z,83.25
2022-12-16T00:28:43.952Z,83.37
2022-12-16T00:31:12.496Z,83.63
2022-12-16T00:33:41.036Z,83.75
2022-12-16T00:36:09.296Z,83.50
2022-12-16T00:38:38.006Z,83.51
2022-12-16T00:41:06.180Z,83.59
2022-12-16T00:43:34.611Z,83.19
2022-12-16T00:46:02.494Z,83.43
2022-12-16T00:48:30.596Z,83.40
2022-12-16T00:50:58.425Z,83.25
2022-12-16T00:53:26.809Z,83.02
2022-12-16T00:56:09.257Z,83.06
2022-12-16T00:58:37.948Z,83.74
2022-12-16T01:01:06.856Z,83.32
2022-12-16T01:03:35.702Z,82.97
2022-12-16T01:06:09.933Z,82.90
2022-12-16T01:08:38.084Z,82.72
2022-12-16T01:11:06.165Z,82.18
2022-12-16T01:13:34.679Z,82.30
2022-12-16T01:16:03.350Z,82.43
2022-12-16T01:18:31.834Z,81.90
2022-12-16T01:21:07.579Z,81.80
2022-12-16T01:23:36.671Z,81.96
2022-12-16T01:26:04.543Z,82.09
2022-12-16T01:28:32.609Z,82.19
2022-12-16T01:31:04.257Z,82.32
2022-12-16T01:33:33.540Z,82.62
2022-12-16T01:36:04.879Z,83.26
2022-12-16T01:38:33.287Z,83.07
2022-12-16T01:41:01.499Z,82.47
2022-12-16T01:43:33.225Z,82.50
2022-12-16T01:46:14.644Z,82.48
2022-12-16T01:49:08.185Z,82.15
2022-12-16T01:51:39.764Z,82.40
2022-12-16T01:54:23.568Z,82.49
2022-12-16T01:57:00.948Z,82.41
2022-12-16T01:59:31.701Z,82.51
2022-12-16T02:02:00.225Z,82.40
2022-12-16T02:04:28.347Z,82.33
2022-12-16T02:06:56.970Z,82.70
2022-12-16T02:09:25.227Z,82.54
2022-12-16T02:12:19.708Z,83.06
2022-12-16T02:15:02.806Z,83.09
2022-12-16T02:17:41.839Z,83.04
2022-12-16T02:20:19.082Z,83.12
2022-12-16T02:22:58.493Z,83.02
2022-12-16T02:25:58.426Z,82.79
2022-12-16T02:29:10.400Z,82.70
2022-12-16T02:31:56.152Z,82.75
2022-12-16T02:34:41.619Z,82.69
2022-12-16T02:37:29.052Z,82.96
2022-12-16T02:40:01.593Z,83.39
2022-12-16T02:43:12.603Z,83.42
2022-12-16T02:45:41.844Z,83.78
2022-12-16T02:48:09.784Z,83.70
2022-12-16T02:50:44.356Z,83.62
2022-12-16T02:53:13.043Z,83.51
2022-12-16T02:55:53.625Z,83.81
2022-12-16T02:58:32.248Z,83.36
2022-12-16T03:01:24.241Z,83.14
2022-12-16T03:04:10.786Z,82.81
2022-12-16T03:06:41.416Z,82.58
2022-12-16T03:09:13.511Z,82.45
2022-12-16T03:11:44.034Z,82.58
2022-12-16T03:14:16.854Z,82.75
2022-12-16T03:16:47.043Z,82.74
2022-12-16T03:19:15.216Z,82.63
2022-12-16T03:22:14.712Z,82.57
2022-12-16T03:24:43.568Z,82.68
2022-12-16T03:27:31.801Z,82.65
2022-12-16T03:30:06.774Z,82.78
2022-12-16T03:32:39.980Z,82.99
2022-12-16T03:35:19.669Z,82.79
2022-12-16T03:37:50.898Z,82.68
2022-12-16T03:40:21.590Z,82.47
2022-12-16T03:42:52.322Z,82.66
2022-12-16T03:45:26.590Z,82.64
2022-12-16T03:47:58.910Z,82.49
2022-12-16T03:50:31.984Z,82.49
2022-12-16T03:52:59.812Z,82.33
2022-12-16T03:55:28.210Z,82.34
2022-12-16T03:57:57.270Z,82.40
2022-12-16T04:00:25.723Z,82.46
2022-12-16T04:02:53.633Z,82.44
2022-12-16T04:05:22.949Z,82.31
2022-12-16T04:07:50.957Z,82.35
2022-12-16T04:10:39.015Z,82.34
2022-12-16T04:13:26.812Z,82.59
2022-12-16T04:16:13.957Z,82.68
2022-12-16T04:19:00.712Z,82.88
2022-12-16T04:21:47.736Z,82.63
2022-12-16T04:24:19.674Z,82.32
2022-12-16T04:27:15.069Z,82.19
2022-12-16T04:30:06.824Z,82.55
2022-12-16T04:32:53.264Z,82.49
2022-12-16T04:35:39.741Z,82.57
2022-12-16T04:38:26.597Z,82.23
2022-12-16T04:41:13.020Z,82.12
2022-12-16T04:44:00.266Z,81.82
2022-12-16T04:46:46.764Z,81.88
2022-12-16T04:49:33.299Z,82.16
2022-12-16T04:52:19.481Z,81.94
2022-12-16T04:55:06.026Z,82.34
2022-12-16T04:57:52.787Z,82.09
2022-12-16T05:00:39.884Z,82.32
2022-12-16T05:03:27.110Z,82.26
2022-12-16T05:06:13.567Z,82.27
2022-12-16T05:09:00.148Z,82.58
2022-12-16T05:11:46.816Z,82.64
2022-12-16T05:14:33.215Z,82.87
2022-12-16T05:17:19.515Z,82.90
2022-12-16T05:20:05.701Z,83.16
2022-12-16T05:22:52.728Z,83.21
2022-12-16T05:25:40.792Z,83.15
2022-12-16T05:28:27.658Z,83.19
2022-12-16T05:31:14.021Z,83.20
2022-12-16T05:34:00.788Z,82.95
2022-12-16T05:36:47.286Z,82.64
2022-12-16T05:39:33.799Z,82.85
2022-12-16T05:42:20.280Z,82.70
2022-12-16T05:45:06.843Z,82.14
2022-12-16T05:47:53.866Z,81.84
2022-12-16T05:50:40.368Z,82.19
2022-12-16T05:53:30.199Z,82.13
2022-12-16T05:56:17.163Z,82.17
2022-12-16T05:59:03.406Z,82.21
2022-12-16T06:01:50.119Z,82.01
2022-12-16T06:04:36.489Z,81.81
2022-12-16T06:07:22.926Z,82.06
2022-12-16T06:10:09.290Z,82.28
2022-12-16T06:12:55.732Z,82.70
2022-12-16T06:15:42.150Z,82.88
2022-12-16T06:18:28.886Z,83.25
2022-12-16T06:21:14.964Z,83.15
2022-12-16T06:24:01.587Z,82.87
2022-12-16T06:26:47.945Z,83.00
2022-12-16T06:29:34.272Z,83.40
2022-12-16T06:32:20.402Z,83.38
2022-12-16T06:35:07.137Z,83.46
2022-12-16T06:37:53.530Z,83.65
2022-12-16T06:40:40.228Z,83.38
2022-12-16T06:43:46.086Z,83.85
2022-12-16T06:46:32.601Z,83.54
2022-12-16T06:49:18.793Z,83.27
2022-12-16T06:52:05.097Z,83.56
2022-12-16T06:54:51.128Z,83.67
2022-12-16T06:57:37.769Z,83.58
2022-12-16T07:00:24.789Z,83.58
2022-12-16T07:03:11.177Z,83.80
2022-12-16T07:05:57.324Z,83.61
2022-12-16T07:08:43.880Z,83.87
2022-12-16T07:11:30.590Z,83.94
2022-12-16T07:14:17.324Z,83.89
2022-12-16T07:17:03.620Z,83.89
2022-12-16T07:19:50.094Z,83.98
2022-12-16T07:22:36.193Z,84.26
2022-12-16T07:25:23.409Z,84.09
2022-12-16T07:28:15.347Z,84.63
2022-12-16T07:31:03.079Z,84.89
2022-12-16T07:33:49.236Z,84.87
2022-12-16T07:36:35.742Z,85.45
2022-12-16T07:39:21.841Z,85.56
2022-12-16T07:42:08.193Z,85.75
2022-12-16T07:44:54.739Z,85.73
2022-12-16T07:47:41.073Z,86.02
2022-12-16T07:50:27.560Z,86.26
2022-12-16T07:53:15.875Z,86.30
2022-12-16T07:56:02.950Z,86.69
2022-12-16T07:58:49.828Z,86.53
2022-12-16T08:01:36.628Z,86.48
2022-12-16T08:04:23.187Z,86.66
2022-12-16T08:07:09.498Z,86.72
2022-12-16T08:09:55.923Z,87.22
2022-12-16T08:12:42.641Z,87.36
2022-12-16T08:15:29.460Z,87.42
2022-12-16T08:18:15.881Z,87.39
2022-12-16T08:21:02.509Z,87.55
2022-12-16T08:23:49.041Z,87.71
2022-12-16T08:26:35.555Z,88.03
2022-12-16T08:29:43.139Z,88.10
2022-12-16T08:32:28.312Z,88.62
2022-12-16T08:35:14.751Z,88.78
2022-12-16T08:38:01.459Z,89.00
2022-12-16T08:40:47.812Z,89.00
2022-12-16T08:43:35.242Z,89.43
2022-12-16T08:46:21.709Z,89.56
2022-12-16T08:49:08.189Z,89.88
2022-12-16T08:51:55.293Z,89.99
2022-12-16T08:54:42.131Z,90.16
2022-12-16T08:57:29.461Z,89.93
2022-12-16T09:00:16.298Z,90.03
2022-12-16T09:03:02.664Z,90.01
2022-12-16T09:05:49.552Z,90.20
2022-12-16T09:08:36.094Z,90.44
2022-12-16T09:11:23.078Z,90.00
2022-12-16T09:14:09.427Z,90.46
2022-12-16T09:16:56.419Z,90.30
2022-12-16T09:19:42.624Z,90.35
2022-12-16T09:22:29.183Z,90.41
2022-12-16T09:25:15.814Z,90.58
2022-12-16T09:28:02.535Z,90.62
2022-12-16T09:30:48.898Z,90.35
2022-12-16T09:33:35.900Z,90.77
2022-12-16T09:36:23.019Z,90.67
2022-12-16T09:39:09.468Z,90.41
2022-12-16T09:42:26.788Z,90.31
2022-12-16T09:45:30.341Z,90.47
2022-12-16T09:48:25.163Z,90.79
2022-12-16T09:51:14.886Z,91.06
2022-12-16T09:54:02.992Z,91.06
2022-12-16T09:56:55.141Z,90.49
2022-12-16T09:59:53.093Z,90.61
2022-12-16T10:02:43.544Z,90.76
2022-12-16T10:05:37.970Z,90.61
2022-12-16T10:08:29.992Z,90.56
2022-12-16T10:11:22.825Z,90.49
2022-12-16T10:14:19.738Z,90.09
2022-12-16T10:17:38.931Z,90.95
2022-12-16T10:20:31.613Z,89.92
2022-12-16T10:23:29.487Z,89.72
2022-12-16T10:26:30.793Z,89.55
2022-12-16T10:29:39.911Z,90.38
2022-12-16T10:33:00.584Z,90.65
2022-12-16T10:35:51.285Z,91.06
2022-12-16T10:38:55.028Z,90.66
2022-12-16T10:41:46.675Z,90.47
2022-12-16T10:44:47.656Z,91.17
2022-12-16T10:47:34.171Z,90.68
2022-12-16T10:50:21.047Z,90.80
2022-12-16T10:53:21.165Z,91.11
2022-12-16T10:56:10.671Z,90.93
2022-12-16T10:59:17.665Z,90.84
2022-12-16T11:02:17.288Z,91.30
2022-12-16T11:05:04.740Z,91.15
2022-12-16T11:07:51.267Z,91.38
2022-12-16T11:10:57.106Z,91.60
2022-12-16T11:13:45.678Z,92.09
2022-12-16T11:16:39.772Z,91.94
2022-12-16T11:19:47.500Z,91.83
2022-12-16T11:22:51.169Z,91.70
2022-12-16T11:25:40.224Z,92.00
2022-12-16T11:28:50.079Z,91.58
2022-12-16T11:31:36.730Z,92.03
2022-12-16T11:34:23.892Z,91.91
2022-12-16T11:37:11.852Z,91.89
2022-12-16T11:39:59.529Z,91.60
2022-12-16T11:42:50.624Z,91.74
2022-12-16T11:45:39.878Z,92.23
2022-12-16T11:49:00.590Z,92.12
2022-12-16T11:51:50.575Z,92.33
2022-12-16T11:54:47.824Z,92.02
2022-12-16T11:57:44.875Z,92.35
2022-12-16T12:00:35.135Z,92.27
2022-12-16T12:03:29.905Z,92.02
2022-12-16T12:06:49.542Z,91.82
2022-12-16T12:09:38.957Z,91.70
2022-12-16T12:12:42.756Z,91.57
2022-12-16T12:15:32.141Z,92.39
2022-12-16T12:18:27.173Z,91.80
2022-12-16T12:21:27.043Z,92.08
2022-12-16T12:24:19.760Z,92.19
2022-12-16T12:27:35.619Z,92.39
2022-12-16T12:30:36.862Z,92.28
2022-12-16T12:34:07.594Z,92.65
2022-12-16T12:37:25.060Z,92.18
2022-12-16T12:40:37.005Z,92.39
2022-12-16T12:43:43.236Z,92.61
2022-12-16T12:46:57.926Z,92.87
2022-12-16T12:49:55.619Z,93.25
2022-12-16T12:53:19.292Z,92.63
2022-12-16T12:56:09.048Z,92.74
2022-12-16T12:58:57.863Z,93.35
2022-12-16T13:01:49.890Z,93.13
2022-12-16T13:04:39.832Z,93.14
2022-12-16T13:07:27.262Z,93.25
2022-12-16T13:10:34.005Z,93.21
2022-12-16T13:13:48.115Z,93.34
2022-12-16T13:17:05.320Z,93.52
2022-12-16T13:19:54.530Z,93.71
2022-12-16T13:23:03.770Z,93.77
2022-12-16T13:26:10.335Z,93.73
2022-12-16T13:29:01.483Z,93.91
2022-12-16T13:31:49.115Z,93.91
2022-12-16T13:34:46.184Z,94.18
2022-12-16T13:37:43.436Z,94.45
2022-12-16T13:40:38.359Z,94.60
2022-12-16T13:43:45.428Z,94.75
2022-12-16T13:46:33.819Z,94.89
2022-12-16T13:49:56.009Z,94.37
2022-12-16T13:53:07.399Z,94.19
2022-12-16T13:56:15.936Z,94.35
2022-12-16T13:59:08.622Z,94.77
2022-12-16T14:02:15.588Z,95.28
2022-12-16T14:05:07.090Z,94.74
2022-12-16T14:07:57.684Z,95.03
2022-12-16T14:10:51.935Z,94.75
2022-12-16T14:14:05.086Z,94.64
2022-12-16T14:17:06.323Z,95.22
2022-12-16T14:20:20.996Z,94.84
2022-12-16T14:23:55.820Z,94.87
2022-12-16T14:26:39.759Z,94.97
2022-12-16T14:29:40.082Z,94.79
2022-12-16T14:32:44.880Z,94.62
2022-12-16T14:35:46.495Z,94.64
2022-12-16T14:38:43.828Z,94.61
2022-12-16T14:41:44.053Z,94.74
2022-12-16T14:44:41.983Z,94.13
2022-12-16T14:47:39.290Z,93.92
2022-12-16T14:50:39.809Z,94.17
2022-12-16T14:53:48.954Z,94.17
2022-12-16T14:56:41.735Z,94.28
2022-12-16T14:59:38.726Z,94.12
2022-12-16T15:02:52.623Z,93.84
2022-12-16T15:05:46.086Z,94.09
2022-12-16T15:08:36.434Z,93.89
2022-12-16T15:11:27.861Z,93.65
2022-12-16T15:14:18.956Z,93.77
2022-12-16T15:17:07.873Z,94.06
2022-12-16T15:20:08.561Z,94.06
2022-12-16T15:22:55.099Z,94.33
2022-12-16T15:25:44.229Z,94.00
2022-12-16T15:29:01.447Z,94.16
2022-12-16T15:31:55.228Z,94.13
2022-12-16T15:35:07.135Z,94.49
2022-12-16T15:38:04.132Z,93.93
2022-12-16T15:41:00.164Z,93.66
2022-12-16T15:43:57.369Z,93.94
2022-12-16T15:46:48.137Z,93.68
2022-12-16T15:49:46.452Z,94.01
2022-12-16T15:52:53.507Z,93.73
2022-12-16T15:55:49.419Z,93.97
2022-12-16T15:58:53.649Z,94.26
2022-12-16T16:01:44.821Z,93.80
2022-12-16T16:04:47.163Z,93.82
2022-12-16T16:07:42.878Z,94.01
2022-12-16T16:10:36.672Z,93.96
2022-12-16T16:13:23.600Z,93.34
2022-12-16T16:16:10.771Z,93.21
2022-12-16T16:18:58.565Z,93.44
2022-12-16T16:21:45.082Z,93.38
2022-12-16T16:24:32.204Z,93.89
2022-12-16T16:27:21.069Z,93.46
2022-12-16T16:30:07.549Z,93.25
2022-12-16T16:32:53.856Z,92.98
2022-12-16T16:35:40.360Z,93.17
2022-12-16T16:38:31.705Z,93.08
2022-12-16T16:41:18.525Z,92.97
2022-12-16T16:44:04.844Z,93.15
2022-12-16T16:46:59.055Z,93.35
2022-12-16T16:49:52.309Z,93.51
2022-12-16T16:52:41.632Z,93.00
2022-12-16T16:55:42.946Z,92.98
2022-12-16T16:58:45.584Z,93.09
2022-12-16T17:01:33.303Z,93.30
2022-12-16T17:04:20.665Z,93.01
2022-12-16T17:07:07.075Z,93.18
2022-12-16T17:09:53.818Z,93.27
2022-12-16T17:12:42.797Z,93.15
2022-12-16T17:15:42.862Z,92.93
2022-12-16T17:18:29.454Z,92.87
2022-12-16T17:21:16.094Z,92.82
2022-12-16T17:24:02.592Z,92.40
2022-12-16T17:26:49.393Z,92.35
2022-12-16T17:29:41.607Z,91.95
2022-12-16T17:32:29.329Z,92.33
2022-12-16T17:35:16.243Z,92.44
2022-12-16T17:38:03.188Z,91.96
2022-12-16T17:40:49.185Z,91.83
2022-12-16T17:43:35.950Z,92.39
2022-12-16T17:46:25.738Z,92.56
2022-12-16T17:49:13.709Z,92.36
2022-12-16T17:52:00.732Z,92.54
2022-12-16T17:54:47.684Z,92.56
2022-12-16T17:57:33.806Z,92.41
2022-12-16T18:00:20.198Z,92.25
2022-12-16T18:03:06.709Z,92.66
2022-12-16T18:05:53.415Z,92.03
2022-12-16T18:08:39.962Z,92.11
2022-12-16T18:11:26.614Z,92.01
2022-12-16T18:14:13.155Z,92.20
2022-12-16T18:16:59.777Z,92.36
2022-12-16T18:19:46.298Z,92.29
2022-12-16T18:22:35.303Z,92.44
2022-12-16T18:25:21.787Z,92.51
2022-12-16T18:28:08.366Z,92.47
2022-12-16T18:30:56.056Z,92.38
2022-12-16T18:33:42.543Z,92.32
2022-12-16T18:36:45.699Z,92.33
2022-12-16T18:39:32.205Z,92.14
2022-12-16T18:42:18.601Z,92.23
2022-12-16T18:45:07.621Z,92.07
2022-12-16T18:47:54.047Z,92.22
2022-12-16T18:50:40.629Z,92.34
2022-12-16T18:53:27.333Z,92.07
2022-12-16T18:56:25.969Z,92.07
2022-12-16T18:59:12.666Z,92.10
2022-12-16T19:01:59.720Z,92.17
2022-12-16T19:04:46.259Z,92.02
2022-12-16T19:07:33.901Z,91.66
2022-12-16T19:10:20.783Z,92.20
2022-12-16T19:13:07.413Z,91.93
2022-12-16T19:15:54.365Z,91.63
2022-12-16T19:18:41.338Z,91.47
2022-12-16T19:21:28.854Z,91.85
2022-12-16T19:24:15.275Z,91.47
2022-12-16T19:27:01.860Z,91.96
2022-12-16T19:29:48.421Z,91.92
2022-12-16T19:32:34.818Z,91.61
2022-12-16T19:35:21.411Z,91.59
2022-12-16T19:38:08.091Z,91.66
2022-12-16T19:40:54.584Z,91.39
2022-12-16T19:43:42.648Z,91.25
2022-12-16T19:46:29.218Z,91.58
2022-12-16T19:49:15.366Z,91.11
2022-12-16T19:52:01.785Z,91.32
2022-12-16T19:54:48.444Z,91.11
2022-12-16T19:57:34.982Z,91.25
2022-12-16T20:00:22.558Z,91.21
2022-12-16T20:03:09.495Z,91.59
2022-12-16T20:05:56.045Z,91.70
2022-12-16T20:08:42.726Z,91.30
2022-12-16T20:11:29.388Z,91.47
2022-12-16T20:14:16.353Z,91.13
2022-12-16T20:17:02.864Z,91.89
2022-12-16T20:19:49.484Z,91.32
2022-12-16T20:22:35.615Z,91.39
2022-12-16T20:25:22.152Z,91.05
2022-12-16T20:28:08.401Z,91.40
2022-12-16T20:30:56.278Z,91.26
2022-12-16T20:33:43.200Z,91.07
2022-12-16T20:36:29.941Z,90.86
2022-12-16T20:39:16.399Z,90.67
2022-12-16T20:42:02.888Z,90.95
2022-12-16T20:44:49.473Z,91.47
2022-12-16T20:47:36.210Z,91.05
2022-12-16T20:50:22.600Z,91.22
2022-12-16T20:53:09.282Z,91.29
2022-12-16T20:55:56.192Z,91.35
2022-12-16T20:58:43.021Z,91.19
2022-12-16T21:01:29.652Z,91.33
2022-12-16T21:04:16.140Z,91.41
2022-12-16T21:07:02.643Z,91.51
2022-12-16T21:09:49.533Z,91.72
2022-12-16T21:12:35.933Z,91.70
2022-12-16T21:15:23.047Z,91.28
2022-12-16T21:18:09.520Z,91.83
2022-12-16T21:20:56.439Z,92.05
2022-12-16T21:23:42.935Z,91.99
2022-12-16T21:26:29.552Z,91.90
2022-12-16T21:29:15.618Z,92.25
2022-12-16T21:32:02.423Z,91.72
2022-12-16T21:34:48.744Z,91.28
2022-12-16T21:37:35.151Z,91.73
2022-12-16T21:40:21.986Z,92.02
2022-12-16T21:43:08.518Z,92.24
2022-12-16T21:45:56.121Z,92.11
2022-12-16T21:48:47.135Z,91.26
2022-12-16T21:51:33.432Z,91.64
2022-12-16T21:54:21.472Z,91.96
2022-12-16T21:57:07.809Z,91.34
2022-12-16T21:59:54.249Z,91.34
2022-12-16T22:02:43.074Z,91.58
2022-12-16T22:05:29.983Z,91.36
2022-12-16T22:08:16.681Z,91.27
2022-12-16T22:11:03.278Z,91.76
2022-12-16T22:13:49.899Z,91.65
2022-12-16T22:16:43.762Z,90.99
2022-12-16T22:29:12.552Z,90.30
2022-12-16T22:31:59.165Z,90.18
2022-12-16T22:34:45.460Z,90.33
2022-12-16T22:37:31.928Z,90.92
2022-12-16T22:40:18.474Z,90.50
2022-12-16T22:43:07.494Z,90.67
2022-12-16T22:45:54.038Z,90.48
2022-12-16T22:48:42.762Z,91.01
2022-12-16T22:51:30.781Z,91.12
2022-12-16T22:54:17.755Z,90.17
2022-12-16T22:57:04.205Z,89.93
2022-12-16T22:59:50.690Z,90.01
2022-12-16T23:02:38.300Z,90.03
2022-12-16T23:05:27.724Z,90.73
2022-12-16T23:08:14.982Z,91.04
2022-12-16T23:11:01.533Z,90.95
2022-12-16T23:13:47.976Z,91.39
2022-12-16T23:16:34.577Z,90.14
2022-12-16T23:19:20.945Z,90.48
2022-12-16T23:22:08.217Z,90.43
2022-12-16T23:24:54.591Z,90.23
2022-12-16T23:27:41.334Z,89.65
2022-12-16T23:30:28.406Z,89.55
2022-12-16T23:33:19.156Z,88.78
2022-12-16T23:36:05.186Z,89.27
2022-12-16T23:38:51.738Z,89.11
2022-12-16T23:41:39.698Z,89.67
2022-12-16T23:44:26.437Z,89.98
2022-12-16T23:47:12.813Z,89.90
2022-12-16T23:49:59.331Z,90.04
2022-12-16T23:52:45.742Z,89.55
2022-12-16T23:55:32.290Z,89.66
2022-12-16T23:58:20.011Z,89.48
